createdAt,value
2023-03-25T00:01:25.858Z,7.40
2023-03-25T00:03:54.881Z,7.44
2023-03-25T00:06:23.766Z,7.42
2023-03-25T00:08:52.864Z,7.45
2023-03-25T00:11:22.152Z,7.49
2023-03-25T00:13:51.122Z,7.47
2023-03-25T00:16:20.470Z,7.41
2023-03-25T00:18:50.071Z,7.38
2023-03-25T00:21:19.111Z,7.37
2023-03-25T00:23:48.215Z,7.37
2023-03-25T00:26:17.206Z,7.41
2023-03-25T00:28:46.175Z,7.41
2023-03-25T00:31:15.878Z,7.43
2023-03-25T00:33:44.820Z,7.42
2023-03-25T00:36:15.027Z,7.42
2023-03-25T00:38:45.826Z,7.41
2023-03-25T00:41:25.780Z,7.43
2023-03-25T00:43:56.957Z,7.45
2023-03-25T00:46:28.214Z,7.43
2023-03-25T00:48:58.404Z,7.48
2023-03-25T00:51:31.232Z,7.44
2023-03-25T00:54:03.572Z,7.48
2023-03-25T00:56:32.577Z,7.48
2023-03-25T00:59:01.506Z,7.49
2023-03-25T01:01:30.490Z,7.55
2023-03-25T01:04:00.552Z,7.52
2023-03-25T01:06:34.864Z,7.45
2023-03-25T01:09:06.879Z,7.40
2023-03-25T01:11:38.434Z,7.39
2023-03-25T01:14:13.223Z,7.39
2023-03-25T01:16:43.028Z,7.37
2023-03-25T01:19:13.165Z,7.37
2023-03-25T01:21:42.302Z,7.39
2023-03-25T01:24:14.863Z,7.40
2023-03-25T01:26:45.976Z,7.39
2023-03-25T01:29:17.760Z,7.29
2023-03-25T01:31:47.363Z,7.16
2023-03-25T01:34:17.304Z,7.13
2023-03-25T01:36:49.251Z,7.11
2023-03-25T01:39:19.019Z,7.13
2023-03-25T01:41:50.934Z,7.06
2023-03-25T01:44:20.822Z,6.88
2023-03-25T01:46:53.872Z,6.76
2023-03-25T01:49:33.336Z,6.74
2023-03-25T01:52:12.501Z,6.77
2023-03-25T01:54:43.018Z,6.79
2023-03-25T01:57:18.255Z,6.81
2023-03-25T01:59:48.603Z,6.74
2023-03-25T02:02:18.973Z,6.58
2023-03-25T02:04:59.397Z,6.46
2023-03-25T02:07:32.820Z,6.38
2023-03-25T02:10:06.752Z,6.32
2023-03-25T02:12:35.797Z,6.28
2023-03-25T02:15:08.059Z,6.27
2023-03-25T02:17:49.014Z,6.28
2023-03-25T02:20:46.083Z,6.36
2023-03-25T02:23:42.007Z,6.34
2023-03-25T02:26:42.531Z,6.27
2023-03-25T02:29:26.869Z,6.23
2023-03-25T02:32:44.357Z,6.24
2023-03-25T02:35:25.538Z,6.23
2023-03-25T02:38:28.291Z,6.22
2023-03-25T02:41:16.469Z,6.22
2023-03-25T02:44:27.679Z,6.15
2023-03-25T02:47:02.520Z,6.08
2023-03-25T02:49:56.255Z,6.10
2023-03-25T02:52:30.009Z,5.95
2023-03-25T02:55:05.191Z,5.83
2023-03-25T02:57:38.340Z,5.81
2023-03-25T03:00:15.555Z,5.79
2023-03-25T03:02:59.654Z,5.76
2023-03-25T03:05:35.720Z,5.74
2023-03-25T03:08:20.089Z,5.75
2023-03-25T03:10:52.237Z,5.76
2023-03-25T03:13:56.929Z,5.74
2023-03-25T03:16:38.125Z,5.60
2023-03-25T03:19:24.244Z,5.54
2023-03-25T03:21:56.943Z,5.41
2023-03-25T03:24:37.338Z,5.27
2023-03-25T03:27:06.201Z,5.19
2023-03-25T03:29:41.735Z,5.18
2023-03-25T03:32:11.518Z,5.17
2023-03-25T03:34:47.186Z,5.14
2023-03-25T03:37:21.454Z,5.16
2023-03-25T03:39:55.030Z,5.12
2023-03-25T03:42:33.423Z,5.07
2023-03-25T03:45:30.687Z,5.03
2023-03-25T03:48:06.160Z,5.03
2023-03-25T03:50:50.590Z,5.03
2023-03-25T03:53:45.810Z,5.01
2023-03-25T03:56:37.367Z,5.01
2023-03-25T03:59:13.004Z,5.02
2023-03-25T04:01:46.481Z,5.06
2023-03-25T04:04:28.321Z,5.12
2023-03-25T04:07:17.246Z,5.17
2023-03-25T04:10:14.809Z,5.21
2023-03-25T04:12:50.365Z,5.25
2023-03-25T04:15:19.723Z,5.28
2023-03-25T04:17:48.789Z,5.29
2023-03-25T04:20:24.089Z,5.25
2023-03-25T04:22:53.876Z,5.18
2023-03-25T04:25:25.380Z,5.22
2023-03-25T04:27:59.100Z,5.22
2023-03-25T04:30:29.404Z,5.18
2023-03-25T04:32:58.396Z,5.18
2023-03-25T04:35:27.445Z,5.12
2023-03-25T04:37:57.785Z,5.08
2023-03-25T04:40:26.892Z,5.04
2023-03-25T04:42:57.008Z,5.01
2023-03-25T04:45:26.441Z,5.01
2023-03-25T04:47:55.474Z,5.02
2023-03-25T04:50:27.561Z,5.00
2023-03-25T04:52:58.341Z,5.01
2023-03-25T04:55:27.444Z,4.98
2023-03-25T04:57:56.320Z,4.90
2023-03-25T05:00:25.322Z,4.82
2023-03-25T05:02:56.086Z,4.82
2023-03-25T05:05:26.030Z,4.84
2023-03-25T05:07:58.559Z,4.82
2023-03-25T05:10:30.971Z,4.80
2023-03-25T05:13:07.026Z,4.79
2023-03-25T05:15:39.660Z,4.79
2023-03-25T05:18:10.196Z,4.85
2023-03-25T05:20:40.815Z,5.01
2023-03-25T05:23:19.235Z,5.17
2023-03-25T05:25:51.338Z,5.41
2023-03-25T05:28:20.357Z,5.63
2023-03-25T05:30:49.500Z,5.77
2023-03-25T05:33:19.202Z,5.86
2023-03-25T05:35:48.674Z,5.92
2023-03-25T05:38:19.111Z,5.98
2023-03-25T05:40:48.850Z,6.06
2023-03-25T05:43:23.176Z,6.14
2023-03-25T05:45:52.523Z,6.31
2023-03-25T05:48:21.678Z,6.43
2023-03-25T05:50:50.590Z,6.54
2023-03-25T05:53:20.779Z,6.61
2023-03-25T05:55:52.511Z,6.66
2023-03-25T05:58:21.652Z,6.70
2023-03-25T06:00:50.890Z,6.75
2023-03-25T06:03:21.160Z,6.80
2023-03-25T06:05:53.578Z,6.79
2023-03-25T06:08:26.074Z,6.83
2023-03-25T06:11:00.991Z,6.91
2023-03-25T06:13:29.904Z,6.91
2023-03-25T06:16:00.349Z,6.88
2023-03-25T06:18:29.417Z,6.90
2023-03-25T06:20:58.746Z,6.94
2023-03-25T06:23:28.335Z,6.98
2023-03-25T06:25:58.719Z,7.04
2023-03-25T06:28:27.809Z,7.13
2023-03-25T06:30:57.285Z,7.22
2023-03-25T06:33:43.290Z,7.34
2023-03-25T06:36:18.728Z,7.44
2023-03-25T06:38:49.589Z,7.53
2023-03-25T06:41:20.578Z,7.65
2023-03-25T06:43:49.750Z,7.83
2023-03-25T06:46:18.738Z,8.06
2023-03-25T06:48:47.673Z,8.30
2023-03-25T06:51:16.813Z,8.46
2023-03-25T06:53:45.743Z,8.59
2023-03-25T06:56:15.695Z,8.63
2023-03-25T07:20:09.589Z,9.40
2023-03-25T07:22:40.471Z,9.69
2023-03-25T07:25:09.708Z,9.85
2023-03-25T07:27:38.613Z,9.98
2023-03-25T07:30:08.253Z,10.17
2023-03-25T07:32:37.203Z,10.37
2023-03-25T07:35:06.803Z,10.61
2023-03-25T07:37:35.781Z,10.68
2023-03-25T07:40:05.388Z,10.70
2023-03-25T07:42:36.868Z,11.07
2023-03-25T07:45:06.948Z,11.46
2023-03-25T07:47:36.146Z,11.57
2023-03-25T07:50:05.818Z,11.42
2023-03-25T07:52:36.338Z,11.24
2023-03-25T07:55:06.121Z,11.09
2023-03-25T07:57:35.033Z,11.23
2023-03-25T08:00:06.076Z,11.59
2023-03-25T08:02:35.229Z,11.93
2023-03-25T08:05:05.882Z,12.29
2023-03-25T08:07:34.838Z,12.67
2023-03-25T08:10:04.240Z,12.86
2023-03-25T08:12:33.135Z,12.60
2023-03-25T08:15:02.072Z,12.52
2023-03-25T08:17:31.218Z,12.46
2023-03-25T08:20:01.199Z,12.75
2023-03-25T08:22:30.501Z,12.81
2023-03-25T08:24:59.963Z,13.16
2023-03-25T08:27:28.882Z,13.37
2023-03-25T08:30:00.042Z,13.31
2023-03-25T08:32:30.060Z,13.55
2023-03-25T08:34:59.035Z,13.76
2023-03-25T08:37:28.092Z,14.04
2023-03-25T08:39:58.205Z,14.35
2023-03-25T08:42:27.266Z,14.25
2023-03-25T08:44:56.194Z,14.16
2023-03-25T08:47:25.135Z,13.91
2023-03-25T08:49:54.240Z,13.61
2023-03-25T08:52:23.468Z,13.30
2023-03-25T08:54:52.435Z,13.18
2023-03-25T08:57:21.414Z,13.18
2023-03-25T08:59:50.554Z,13.22
2023-03-25T09:02:19.578Z,13.24
2023-03-25T09:04:50.454Z,13.60
2023-03-25T09:07:19.985Z,13.82
2023-03-25T09:09:48.927Z,13.52
2023-03-25T09:12:17.918Z,13.26
2023-03-25T09:14:46.958Z,12.89
2023-03-25T09:17:18.510Z,12.62
2023-03-25T09:19:48.232Z,12.45
2023-03-25T09:22:17.527Z,12.46
2023-03-25T09:24:46.435Z,12.62
2023-03-25T09:27:15.695Z,12.81
2023-03-25T09:29:44.759Z,12.88
2023-03-25T09:32:15.084Z,12.95
2023-03-25T09:34:45.099Z,12.95
2023-03-25T09:37:14.462Z,12.90
2023-03-25T09:39:43.450Z,12.83
2023-03-25T09:42:31.311Z,12.86
2023-03-25T09:45:36.655Z,13.22
2023-03-25T09:48:27.562Z,13.18
2023-03-25T09:51:04.570Z,13.07
2023-03-25T09:54:06.208Z,13.06
2023-03-25T09:56:42.378Z,13.24
2023-03-25T09:59:21.340Z,13.53
2023-03-25T10:02:18.857Z,13.81
2023-03-25T10:05:42.543Z,14.17
2023-03-25T10:08:21.524Z,14.17
2023-03-25T10:10:53.380Z,14.03
2023-03-25T10:13:25.017Z,13.85
2023-03-25T10:16:08.838Z,13.75
2023-03-25T10:18:43.960Z,13.70
2023-03-25T10:21:19.936Z,13.77
2023-03-25T10:23:55.071Z,14.00
2023-03-25T10:26:44.341Z,14.21
2023-03-25T10:29:18.541Z,14.44
2023-03-25T10:31:53.238Z,14.31
2023-03-25T10:34:35.026Z,14.22
2023-03-25T10:37:12.592Z,14.12
2023-03-25T10:39:45.475Z,14.12
2023-03-25T10:42:25.529Z,13.97
2023-03-25T10:44:55.012Z,13.84
2023-03-25T10:47:29.230Z,13.69
2023-03-25T10:49:59.561Z,13.31
2023-03-25T10:52:28.499Z,13.05
2023-03-25T10:54:58.793Z,12.93
2023-03-25T10:57:31.250Z,12.85
2023-03-25T11:00:18.641Z,12.83
2023-03-25T11:02:48.279Z,12.68
2023-03-25T11:05:23.450Z,12.43
2023-03-25T11:08:11.566Z,12.02
2023-03-25T11:10:49.039Z,11.53
2023-03-25T11:13:22.167Z,10.62
2023-03-25T11:15:54.925Z,9.87
2023-03-25T11:18:36.276Z,9.42
2023-03-25T11:21:13.582Z,9.14
2023-03-25T11:23:48.165Z,9.02
2023-03-25T11:26:41.343Z,8.96
2023-03-25T11:29:16.758Z,8.94
2023-03-25T11:32:04.516Z,9.02
2023-03-25T11:34:42.250Z,9.30
2023-03-25T11:37:22.753Z,10.03
2023-03-25T11:39:55.684Z,10.60
2023-03-25T11:42:43.891Z,10.93
2023-03-25T11:45:26.619Z,11.81
2023-03-25T11:48:01.624Z,12.28
2023-03-25T11:50:30.879Z,12.42
2023-03-25T11:53:02.776Z,12.50
2023-03-25T11:55:42.056Z,13.12
2023-03-25T11:58:17.503Z,14.03
2023-03-25T12:00:49.369Z,14.30
2023-03-25T12:03:26.714Z,14.58
2023-03-25T12:06:05.098Z,14.69
2023-03-25T12:08:43.684Z,14.69
2023-03-25T12:11:42.689Z,14.94
2023-03-25T12:14:30.460Z,14.76
2023-03-25T12:17:16.780Z,14.40
2023-03-25T12:20:16.601Z,13.97
2023-03-25T12:22:54.589Z,13.50
2023-03-25T12:25:28.960Z,13.07
2023-03-25T12:28:22.908Z,12.91
2023-03-25T12:31:27.470Z,12.66
2023-03-25T12:33:59.371Z,12.51
2023-03-25T12:36:56.286Z,12.47
2023-03-25T12:39:50.250Z,12.67
2023-03-25T12:42:33.563Z,13.19
2023-03-25T12:45:26.705Z,13.82
2023-03-25T12:48:22.603Z,14.37
2023-03-25T12:51:24.661Z,14.51
2023-03-25T12:54:05.953Z,14.94
2023-03-25T12:57:11.330Z,15.33
2023-03-25T12:59:50.992Z,15.32
2023-03-25T13:02:41.700Z,15.74
2023-03-25T13:05:16.631Z,15.82
2023-03-25T13:07:51.053Z,15.91
2023-03-25T13:10:22.678Z,15.72
2023-03-25T13:12:55.981Z,15.12
2023-03-25T13:15:30.056Z,14.52
2023-03-25T13:18:17.843Z,13.86
2023-03-25T13:21:22.395Z,13.21
2023-03-25T13:24:11.322Z,12.59
2023-03-25T13:26:44.596Z,11.85
2023-03-25T13:29:32.095Z,11.37
2023-03-25T13:32:07.202Z,11.29
2023-03-25T13:34:44.063Z,11.42
2023-03-25T13:37:25.726Z,11.97
2023-03-25T13:40:10.922Z,12.68
2023-03-25T13:43:03.116Z,13.27
2023-03-25T13:45:43.252Z,13.74
2023-03-25T13:48:19.157Z,13.90
2023-03-25T13:50:48.893Z,14.19
2023-03-25T13:53:33.422Z,14.56
2023-03-25T13:56:34.026Z,14.84
2023-03-25T13:59:26.176Z,14.50
2023-03-25T14:02:25.366Z,14.04
2023-03-25T14:05:18.505Z,13.78
2023-03-25T14:07:57.269Z,13.91
2023-03-25T14:10:45.403Z,13.71
2023-03-25T14:13:25.054Z,13.41
2023-03-25T14:16:08.292Z,13.02
2023-03-25T14:18:50.224Z,12.85
2023-03-25T14:21:28.367Z,12.65
2023-03-25T14:24:03.487Z,12.21
2023-03-25T14:26:37.724Z,11.74
2023-03-25T14:29:19.443Z,11.44
2023-03-25T14:32:17.730Z,11.36
2023-03-25T14:34:51.548Z,11.60
2023-03-25T14:37:28.037Z,11.90
2023-03-25T14:40:00.361Z,12.14
2023-03-25T14:42:42.575Z,12.30
2023-03-25T14:45:32.996Z,12.33
2023-03-25T14:48:22.993Z,12.24
2023-03-25T14:51:13.993Z,12.18
2023-03-25T14:53:52.269Z,12.30
2023-03-25T14:56:32.805Z,12.53
2023-03-25T14:59:14.061Z,12.69
2023-03-25T15:01:45.732Z,12.80
2023-03-25T15:04:24.996Z,12.70
2023-03-25T15:06:54.144Z,12.59
2023-03-25T15:09:23.626Z,12.61
2023-03-25T15:12:06.050Z,12.63
2023-03-25T15:14:37.410Z,12.62
2023-03-25T15:17:11.247Z,12.65
2023-03-25T15:19:58.657Z,12.63
2023-03-25T15:22:27.616Z,12.39
2023-03-25T15:25:01.241Z,12.19
2023-03-25T15:27:52.197Z,12.08
2023-03-25T15:30:36.298Z,11.99
2023-03-25T15:33:24.745Z,11.90
2023-03-25T15:36:15.471Z,11.82
2023-03-25T15:39:09.259Z,11.84
2023-03-25T15:42:16.138Z,11.86
2023-03-25T15:45:39.023Z,11.81
2023-03-25T15:48:07.968Z,11.74
2023-03-25T15:51:16.661Z,11.68
2023-03-25T15:53:58.248Z,11.63
2023-03-25T15:56:34.461Z,11.53
2023-03-25T15:59:33.494Z,11.45
2023-03-25T16:02:04.052Z,11.36
2023-03-25T16:04:51.007Z,11.31
2023-03-25T16:07:24.522Z,11.28
2023-03-25T16:09:53.439Z,11.23
2023-03-25T16:12:25.471Z,11.18
2023-03-25T16:14:54.360Z,11.13
2023-03-25T16:17:32.872Z,11.10
2023-03-25T16:20:05.959Z,11.06
2023-03-25T16:22:37.527Z,11.03
2023-03-25T16:25:14.246Z,10.98
2023-03-25T16:27:45.747Z,10.94
2023-03-25T16:30:31.419Z,10.92
2023-03-25T16:33:12.461Z,10.91
2023-03-25T16:35:44.984Z,10.94
2023-03-25T16:38:20.116Z,10.94
2023-03-25T16:40:50.466Z,10.94
2023-03-25T16:43:19.620Z,10.88
2023-03-25T16:45:50.187Z,10.79
2023-03-25T16:48:40.067Z,10.67
2023-03-25T16:51:16.710Z,10.57
2023-03-25T16:53:51.946Z,10.52
2023-03-25T16:56:24.825Z,10.47
2023-03-25T16:59:07.856Z,10.43
2023-03-25T17:01:43.203Z,10.35
2023-03-25T17:04:22.247Z,10.31
2023-03-25T17:07:00.937Z,10.28
2023-03-25T17:09:35.374Z,10.27
2023-03-25T17:12:08.761Z,10.26
2023-03-25T17:14:42.691Z,10.27
2023-03-25T17:17:34.790Z,10.20
2023-03-25T17:20:08.969Z,10.11
2023-03-25T17:22:40.760Z,10.03
2023-03-25T17:25:26.337Z,9.93
2023-03-25T17:28:05.594Z,9.88
2023-03-25T17:30:41.780Z,9.87
2023-03-25T17:33:34.475Z,9.76
2023-03-25T17:36:08.375Z,9.73
2023-03-25T17:38:46.293Z,9.68
2023-03-25T17:41:18.275Z,9.61
2023-03-25T17:43:54.354Z,9.54
2023-03-25T17:46:29.353Z,9.52
2023-03-25T17:48:59.725Z,9.51
2023-03-25T17:51:30.994Z,9.51
2023-03-25T17:54:00.081Z,9.43
2023-03-25T17:56:29.690Z,9.32
2023-03-25T17:59:05.684Z,9.20
2023-03-25T18:01:36.232Z,9.08
2023-03-25T18:04:05.651Z,8.96
2023-03-25T18:06:34.637Z,8.85
2023-03-25T18:09:04.953Z,8.78
2023-03-25T18:11:33.887Z,8.73
2023-03-25T18:14:02.847Z,8.69
2023-03-25T18:16:32.009Z,8.70
2023-03-25T18:19:00.953Z,8.72
2023-03-25T18:21:29.915Z,8.68
2023-03-25T18:23:58.825Z,8.59
2023-03-25T18:26:28.713Z,8.53
2023-03-25T18:28:57.635Z,8.46
2023-03-25T18:31:26.786Z,8.40
2023-03-25T18:33:56.478Z,8.31
2023-03-25T18:36:25.352Z,8.25
2023-03-25T18:38:54.665Z,8.27
2023-03-25T18:41:24.507Z,8.22
2023-03-25T18:43:53.474Z,8.17
2023-03-25T18:46:22.458Z,8.11
2023-03-25T18:48:51.512Z,8.12
2023-03-25T18:51:20.655Z,8.18
2023-03-25T18:53:49.661Z,8.20
2023-03-25T18:56:20.625Z,8.20
2023-03-25T18:58:49.699Z,8.24
2023-03-25T19:01:18.961Z,8.22
2023-03-25T19:03:50.516Z,8.19
2023-03-25T19:06:19.506Z,8.18
2023-03-25T19:08:48.601Z,8.17
2023-03-25T19:11:21.650Z,8.16
2023-03-25T19:13:52.930Z,8.14
2023-03-25T19:16:22.095Z,8.13
2023-03-25T19:18:51.310Z,8.05
2023-03-25T19:21:20.653Z,7.92
2023-03-25T19:23:49.839Z,7.83
2023-03-25T19:26:18.985Z,7.77
2023-03-25T19:28:48.110Z,7.73
2023-03-25T19:31:17.143Z,7.72
2023-03-25T19:33:46.153Z,7.69
2023-03-25T19:36:16.582Z,7.65
2023-03-25T19:38:45.515Z,7.61
2023-03-25T19:41:16.513Z,7.55
2023-03-25T19:43:45.756Z,7.45
2023-03-25T19:46:14.975Z,7.37
2023-03-25T19:48:43.869Z,7.26
2023-03-25T19:51:12.929Z,7.24
2023-03-25T19:53:41.989Z,7.25
2023-03-25T19:56:14.237Z,7.26
2023-03-25T19:58:43.480Z,7.26
2023-03-25T20:01:12.694Z,7.25
2023-03-25T20:03:42.142Z,7.25
2023-03-25T20:06:11.561Z,7.28
2023-03-25T20:08:40.733Z,7.33
2023-03-25T20:11:12.169Z,7.39
2023-03-25T20:13:41.267Z,7.43
2023-03-25T20:16:11.128Z,7.44
2023-03-25T20:18:41.400Z,7.43
2023-03-25T20:21:11.815Z,7.43
2023-03-25T20:23:40.808Z,7.44
2023-03-25T20:26:09.904Z,7.47
2023-03-25T20:28:40.734Z,7.49
2023-03-25T20:31:16.533Z,7.49
2023-03-25T20:33:46.090Z,7.50
2023-03-25T20:36:15.086Z,7.48
2023-03-25T20:38:56.166Z,7.41
2023-03-25T20:41:26.864Z,7.37
2023-03-25T20:43:55.785Z,7.35
2023-03-25T20:46:28.429Z,7.34
2023-03-25T20:48:58.262Z,7.34
2023-03-25T20:51:27.239Z,7.31
2023-03-25T20:53:57.119Z,7.25
2023-03-25T20:56:26.517Z,7.22
2023-03-25T20:58:55.446Z,7.26
2023-03-25T21:01:25.133Z,7.29
2023-03-25T21:03:54.634Z,7.34
2023-03-25T21:06:26.663Z,7.40
2023-03-25T21:08:59.572Z,7.42
2023-03-25T21:11:32.555Z,7.41
2023-03-25T21:14:01.791Z,7.40
2023-03-25T21:16:32.239Z,7.40
2023-03-25T21:19:04.197Z,7.42
2023-03-25T21:21:33.165Z,7.44
2023-03-25T21:24:06.790Z,7.44
2023-03-25T21:26:35.717Z,7.43
2023-03-25T21:29:04.780Z,7.41
2023-03-25T21:31:33.745Z,7.40
2023-03-25T21:34:02.815Z,7.41
2023-03-25T21:36:32.454Z,7.44
2023-03-25T21:39:03.122Z,7.48
2023-03-25T21:41:32.242Z,7.50
2023-03-25T21:44:01.230Z,7.50
2023-03-25T21:46:30.128Z,7.52
2023-03-25T21:49:01.366Z,7.50
2023-03-25T21:51:32.534Z,7.48
2023-03-25T21:54:01.666Z,7.47
2023-03-25T21:56:32.487Z,7.48
2023-03-25T21:59:04.685Z,7.54
2023-03-25T22:01:33.767Z,7.58
2023-03-25T22:04:03.859Z,7.57
2023-03-25T22:06:35.102Z,7.55
2023-03-25T22:09:06.337Z,7.53
2023-03-25T22:11:37.748Z,7.51
2023-03-25T22:14:08.107Z,7.52
2023-03-25T22:16:38.119Z,7.55
2023-03-25T22:19:07.448Z,7.57
2023-03-25T22:21:37.619Z,7.57
2023-03-25T22:24:08.050Z,7.56
2023-03-25T22:26:43.018Z,7.51
2023-03-25T22:29:13.647Z,7.50
2023-03-25T22:31:43.066Z,7.48
2023-03-25T22:34:15.705Z,7.51
2023-03-25T22:36:50.179Z,7.55
2023-03-25T22:39:21.229Z,7.57
2023-03-25T22:41:50.621Z,7.59
2023-03-25T22:44:20.016Z,7.58
2023-03-25T22:46:49.466Z,7.58
2023-03-25T22:49:18.765Z,7.58
2023-03-25T22:51:47.657Z,7.59
2023-03-25T22:54:16.896Z,7.60
2023-03-25T22:56:46.098Z,7.62
2023-03-25T22:59:15.700Z,7.62
2023-03-25T23:01:44.750Z,7.60
2023-03-25T23:04:14.007Z,7.58
2023-03-25T23:06:45.279Z,7.57
2023-03-25T23:09:38.060Z,7.59
2023-03-25T23:12:12.354Z,7.59
2023-03-25T23:14:43.275Z,7.58
2023-03-25T23:17:13.404Z,7.56
2023-03-25T23:19:42.313Z,7.56
2023-03-25T23:22:11.256Z,7.59
2023-03-25T23:24:40.849Z,7.63
2023-03-25T23:27:11.615Z,7.64
2023-03-25T23:29:41.806Z,7.65
2023-03-25T23:32:11.410Z,7.64
2023-03-25T23:34:40.437Z,7.67
2023-03-25T23:37:09.424Z,7.69
2023-03-25T23:39:40.658Z,7.70
2023-03-25T23:42:09.639Z,7.70
2023-03-25T23:44:38.581Z,7.70
2023-03-25T23:47:07.493Z,7.63
2023-03-25T23:49:38.267Z,7.56
2023-03-25T23:52:11.619Z,7.52
2023-03-25T23:54:40.948Z,7.50
2023-03-25T23:57:09.993Z,7.47
2023-03-25T23:59:38.941Z,7.44
